Nearby METAR Reports

 

KIND - Indianapolis, Indiana, USA
Distance from station: SW 6mi, 9km
Updated: Sep 27 2022 5:54am
Clear
Clear
 Wind from WSW
Wind: WSW 6 mph , 9 km/h
Temperature: 45°F , 7°C
Wind Chill: 42°F , 6°C
Dew Point: 37°F , 3°C
Humidity: 76%
Barometer: 29.98 inHg , 1015.2 hPa
Clouds: Clear
Visibility: 10 miles , 16 km
2022/09/27 09:54 KIND 270954Z 25005KT 10SM CLR 07/03 A2998 RMK AO2 SLP152 T00720033
KEYE - Indianapolis, Indiana, USA
Distance from station: NW 5mi, 8km
Updated: Sep 27 2022 5:53am
Clear
Clear
 Wind from W
Wind: W 6 mph , 9 km/h
Temperature: 46°F , 8°C
Wind Chill: 43°F , 6°C
Dew Point: 39°F , 4°C
Humidity: 76%
Barometer: 29.97 inHg , 1014.9 hPa
Clouds: Clear
Visibility: 10 miles , 16 km
2022/09/27 09:53 KEYE 270953Z AUTO 28005KT 10SM CLR 08/04 A2997 RMK AO2 SLP149 T00830039
 
KTYQ - Indianapolis Exc, Indiana, USA
Distance from station: N 17mi, 28km
Updated: Sep 27 2022 6:15am
Clear
Clear
 Wind from W
Wind: W 5 mph , 7 km/h
Temperature: 41°F , 5°C
Wind Chill: 38°F , 3°C
Dew Point: 37°F , 3°C
Humidity: 87%
Barometer: 29.99 inHg , 1015.6 hPa
Clouds: Clear
Visibility: 10 miles , 16 km
2022/09/27 10:15 KTYQ 271015Z AUTO 26004KT 10SM CLR 05/03 A2999 RMK AO2 T00540034
KGEZ - Shelbyville, Indiana, USA
Distance from station: ESE 27mi, 43km
Updated: Sep 27 2022 5:53am
Clear
Clear
 Wind from WSW
Wind: WSW 5 mph , 7 km/h
Temperature: 45°F , 7°C
Wind Chill: 42°F , 6°C
Dew Point: 39°F , 4°C
Humidity: 81%
Barometer: 29.97 inHg , 1014.9 hPa
Clouds: Clear
Visibility: 10 miles , 16 km
2022/09/27 09:53 KGEZ 270953Z AUTO 24004KT 10SM CLR 07/04 A2997 RMK AO2 SLP149 T00670039
 
KAID - Anderson Municip, Indiana, USA
Distance from station: NE 40mi, 64km
Updated: Sep 27 2022 6:35am
Clear
Clear
 Wind from calm
Wind: Calm
Temperature: 45°F , 7°C
Dew Point: 37°F , 3°C
Humidity: 76%
Barometer: 29.97 inHg , 1014.9 hPa
Clouds: Clear
Visibility: 10 miles , 16 km
2022/09/27 10:35 KAID 271035Z AUTO 00000KT 10SM CLR 07/03 A2997 RMK AO2 T00680030
KBAK - Columbus/Balkala, Indiana, USA
Distance from station: SSE 40mi, 64km
Updated: Sep 26 2022 9:50pm
NOT Current
Partly Cloudy
Partly Cloudy
 Wind from W
Wind: W 7 mph , 11 km/h
Temperature: 55°F , 13°C
Dew Point: 39°F , 4°C
Humidity: 55%
Barometer: 29.97 inHg , 1014.9 hPa
Clouds: Partly Cloudy
Visibility: 10 miles , 16 km
Cloud details: Partly Cloudy 7000 ft
2022/09/27 01:50 KBAK 270150Z 26006KT 10SM SCT070 13/04 A2997 RMK LAST
 
KBMG - Bloomington, Indiana, USA
Distance from station: SSW 48mi, 78km
Updated: Sep 27 2022 5:53am
Clear
Clear
 Wind from calm
Wind: Calm
Temperature: 45°F , 7°C
Dew Point: 37°F , 3°C
Humidity: 76%
Barometer: 30.01 inHg , 1016.3 hPa
Clouds: Clear
Visibility: 10 miles , 16 km
2022/09/27 09:53 KBMG 270953Z AUTO 00000KT 10SM CLR 07/03 A3001 RMK AO2 SLP160 T00720033
KOKK - Kokomo, Indiana, USA
Distance from station: N 53mi, 85km
Updated: Sep 27 2022 5:56am
Clear
Clear
 Wind from W
Wind: W 10 mph , 17 km/h
Temperature: 45°F , 7°C
Wind Chill: 40°F , 4°C
Dew Point: 45°F , 7°C
Humidity: 100%
Barometer: 29.96 inHg , 1014.6 hPa
Clouds: Clear
Visibility: 10 miles , 16 km
2022/09/27 09:56 KOKK 270956Z AUTO 27009KT 10SM CLR 07/07 A2996 RMK AO2 SLP148 T00720072